FDB4JZ OMDB-OBBI
Flight info
| Callsign | FDB4JZ |
|---|---|
| Flight time | 0h 53m |
| Altitude | 26000 |
| Route | NABIX P699 ORMID DCT ORDIG |
| Aircraft | B738/M-SDE2E3FGHIRWXY/LB1 |
Departure
| Time | 2026-04-23 16:03 |
|---|---|
| Airport | Dubai International Airport (OMDB) |
Arrival
| Time | 2026-04-23 16:57 |
|---|---|
| Airport | Bahrain International Airport (OBBI) |
| Time | Latitude | Longitude | Altitude | Speed | Heading |
|---|---|---|---|---|---|
| 2026-04-23 15:22 | 25.25600 | 55.37480 | 20 ft | 0 kts | 121° |
| 2026-04-23 15:51 | 25.25603 | 55.37474 | 20 ft | 2 kts | 121° |
| 2026-04-23 15:51 | 25.25610 | 55.37462 | 22 ft | 2 kts | 121° |
| 2026-04-23 15:51 | 25.25618 | 55.37448 | 22 ft | 2 kts | 122° |
| 2026-04-23 15:52 | 25.25619 | 55.37446 | 22 ft | 1 kts | 122° |
| 2026-04-23 15:52 | 25.25620 | 55.37445 | 22 ft | 0 kts | 122° |
| 2026-04-23 15:52 | 25.25623 | 55.37439 | 20 ft | 2 kts | 163° |
| 2026-04-23 15:52 | 25.25637 | 55.37435 | 20 ft | 1 kts | 180° |
| 2026-04-23 15:53 | 25.25640 | 55.37434 | 20 ft | 0 kts | 212° |
| 2026-04-23 15:57 | 25.25607 | 55.37411 | 20 ft | 10 kts | 211° |
| 2026-04-23 15:57 | 25.25544 | 55.37369 | 22 ft | 10 kts | 211° |
| 2026-04-23 15:57 | 25.25488 | 55.37349 | 23 ft | 7 kts | 162° |
| 2026-04-23 15:58 | 25.25474 | 55.37371 | 21 ft | 8 kts | 121° |
| 2026-04-23 15:58 | 25.25437 | 55.37438 | 23 ft | 11 kts | 121° |
| 2026-04-23 15:58 | 25.25396 | 55.37510 | 21 ft | 11 kts | 121° |
| 2026-04-23 15:58 | 25.25361 | 55.37573 | 22 ft | 9 kts | 122° |
| 2026-04-23 15:59 | 25.25329 | 55.37630 | 21 ft | 9 kts | 122° |
| 2026-04-23 15:59 | 25.25298 | 55.37685 | 21 ft | 8 kts | 122° |
| 2026-04-23 15:59 | 25.25268 | 55.37738 | 21 ft | 8 kts | 122° |
| 2026-04-23 15:59 | 25.25239 | 55.37790 | 21 ft | 8 kts | 122° |
| 2026-04-23 16:00 | 25.25210 | 55.37840 | 21 ft | 8 kts | 122° |
| 2026-04-23 16:00 | 25.25183 | 55.37889 | 22 ft | 7 kts | 122° |
| 2026-04-23 16:00 | 25.25153 | 55.37943 | 21 ft | 10 kts | 122° |
| 2026-04-23 16:00 | 25.25115 | 55.38009 | 22 ft | 10 kts | 121° |
| 2026-04-23 16:01 | 25.25080 | 55.38073 | 23 ft | 10 kts | 122° |
| 2026-04-23 16:01 | 25.25045 | 55.38135 | 23 ft | 9 kts | 122° |
| 2026-04-23 16:01 | 25.24990 | 55.38164 | 21 ft | 9 kts | 189° |
| 2026-04-23 16:01 | 25.24935 | 55.38131 | 22 ft | 9 kts | 211° |
| 2026-04-23 16:02 | 25.24882 | 55.38095 | 25 ft | 9 kts | 211° |
| 2026-04-23 16:02 | 25.24831 | 55.38060 | 29 ft | 8 kts | 210° |
| 2026-04-23 16:02 | 25.24810 | 55.38026 | 29 ft | 4 kts | 289° |
| 2026-04-23 16:02 | 25.24854 | 55.37942 | 29 ft | 38 kts | 301° |
| 2026-04-23 16:03 | 25.25125 | 55.37454 | 31 ft | 109 kts | 302° |
| 2026-04-23 16:03 | 25.25637 | 55.36537 | 39 ft | 167 kts | 302° |
| 2026-04-23 16:03 | 25.26247 | 55.35391 | 705 ft | 173 kts | 301° |
| 2026-04-23 16:03 | 25.26868 | 55.34210 | 1355 ft | 187 kts | 304° |
| 2026-04-23 16:04 | 25.27610 | 55.32889 | 1603 ft | 214 kts | 305° |
| 2026-04-23 16:04 | 25.28426 | 55.31459 | 2041 ft | 226 kts | 304° |
| 2026-04-23 16:04 | 25.29126 | 55.29883 | 2672 ft | 235 kts | 283° |
| 2026-04-23 16:04 | 25.28981 | 55.28088 | 3465 ft | 237 kts | 253° |
| 2026-04-23 16:05 | 25.28567 | 55.26969 | 3975 ft | 239 kts | 248° |
| 2026-04-23 16:05 | 25.27740 | 55.24710 | 4958 ft | 241 kts | 258° |
| 2026-04-23 16:05 | 25.27496 | 55.22788 | 5218 ft | 264 kts | 264° |
| 2026-04-23 16:05 | 25.27346 | 55.20747 | 5818 ft | 270 kts | 264° |
| 2026-04-23 16:06 | 25.27203 | 55.18672 | 6569 ft | 270 kts | 264° |
| 2026-04-23 16:06 | 25.27051 | 55.16599 | 7281 ft | 272 kts | 263° |
| 2026-04-23 16:06 | 25.26886 | 55.14504 | 7940 ft | 276 kts | 263° |
| 2026-04-23 16:06 | 25.26709 | 55.12382 | 8635 ft | 278 kts | 262° |
| 2026-04-23 16:07 | 25.26524 | 55.10245 | 9359 ft | 281 kts | 262° |
| 2026-04-23 16:07 | 25.26332 | 55.08083 | 10016 ft | 284 kts | 262° |
| 2026-04-23 16:07 | 25.26134 | 55.05902 | 10411 ft | 299 kts | 262° |
| 2026-04-23 16:07 | 25.25914 | 55.03537 | 10567 ft | 320 kts | 262° |
| 2026-04-23 16:08 | 25.25678 | 55.01013 | 10721 ft | 340 kts | 262° |
| 2026-04-23 16:08 | 25.25431 | 54.98370 | 11081 ft | 350 kts | 262° |
| 2026-04-23 16:08 | 25.25180 | 54.95684 | 11669 ft | 353 kts | 262° |
| 2026-04-23 16:08 | 25.24928 | 54.92986 | 12319 ft | 354 kts | 262° |
| 2026-04-23 16:09 | 25.24673 | 54.90272 | 12978 ft | 356 kts | 262° |
| 2026-04-23 16:09 | 25.24415 | 54.87541 | 13613 ft | 359 kts | 262° |
| 2026-04-23 16:09 | 25.24154 | 54.84786 | 14209 ft | 362 kts | 262° |
| 2026-04-23 16:09 | 25.23891 | 54.82018 | 14726 ft | 363 kts | 262° |
| 2026-04-23 16:10 | 25.23627 | 54.79243 | 14819 ft | 364 kts | 262° |
| 2026-04-23 16:10 | 25.23361 | 54.76461 | 14872 ft | 367 kts | 262° |
| 2026-04-23 16:10 | 25.23312 | 54.73614 | 15311 ft | 374 kts | 273° |
| 2026-04-23 16:10 | 25.23739 | 54.70783 | 16001 ft | 375 kts | 279° |
| 2026-04-23 16:11 | 25.24280 | 54.67964 | 16713 ft | 374 kts | 280° |
| 2026-04-23 16:11 | 25.24830 | 54.65149 | 17373 ft | 375 kts | 281° |
| 2026-04-23 16:11 | 25.25381 | 54.62322 | 17963 ft | 378 kts | 281° |
| 2026-04-23 16:11 | 25.25930 | 54.59474 | 18483 ft | 381 kts | 281° |
| 2026-04-23 16:12 | 25.26478 | 54.56602 | 18995 ft | 383 kts | 280° |
| 2026-04-23 16:12 | 25.27024 | 54.53713 | 19496 ft | 385 kts | 280° |
| 2026-04-23 16:12 | 25.27571 | 54.50802 | 19992 ft | 388 kts | 280° |
| 2026-04-23 16:12 | 25.28119 | 54.47873 | 20491 ft | 390 kts | 280° |
| 2026-04-23 16:13 | 25.28669 | 54.44928 | 20958 ft | 393 kts | 280° |
| 2026-04-23 16:13 | 25.29776 | 54.38977 | 21907 ft | 398 kts | 280° |
| 2026-04-23 16:13 | 25.30333 | 54.35981 | 22360 ft | 400 kts | 280° |
| 2026-04-23 16:14 | 25.30887 | 54.32997 | 22807 ft | 402 kts | 281° |
| 2026-04-23 16:14 | 25.31449 | 54.29962 | 23241 ft | 405 kts | 281° |
| 2026-04-23 16:14 | 25.32016 | 54.26902 | 23635 ft | 407 kts | 281° |
| 2026-04-23 16:14 | 25.32583 | 54.23835 | 24009 ft | 408 kts | 281° |
| 2026-04-23 16:15 | 25.33152 | 54.20755 | 24408 ft | 409 kts | 281° |
| 2026-04-23 16:15 | 25.33719 | 54.17680 | 24878 ft | 407 kts | 281° |
| 2026-04-23 16:15 | 25.34282 | 54.14624 | 25432 ft | 404 kts | 281° |
| 2026-04-23 16:15 | 25.34841 | 54.11587 | 25831 ft | 403 kts | 281° |
| 2026-04-23 16:16 | 25.35397 | 54.08561 | 25851 ft | 401 kts | 281° |
| 2026-04-23 16:16 | 25.35951 | 54.05546 | 25866 ft | 401 kts | 281° |
| 2026-04-23 16:16 | 25.36506 | 54.02521 | 25873 ft | 402 kts | 281° |
| 2026-04-23 16:16 | 25.37064 | 53.99490 | 25873 ft | 402 kts | 281° |
| 2026-04-23 16:17 | 25.37621 | 53.96464 | 25873 ft | 402 kts | 281° |
| 2026-04-23 16:17 | 25.38177 | 53.93435 | 25874 ft | 402 kts | 281° |
| 2026-04-23 16:17 | 25.38731 | 53.90404 | 25875 ft | 402 kts | 281° |
| 2026-04-23 16:17 | 25.39283 | 53.87376 | 25874 ft | 402 kts | 281° |
| 2026-04-23 16:18 | 25.39834 | 53.84346 | 25871 ft | 402 kts | 281° |
| 2026-04-23 16:18 | 25.40385 | 53.81317 | 25869 ft | 401 kts | 281° |
| 2026-04-23 16:18 | 25.40934 | 53.78294 | 25874 ft | 401 kts | 281° |
| 2026-04-23 16:18 | 25.41482 | 53.75270 | 25873 ft | 401 kts | 281° |
| 2026-04-23 16:19 | 25.42029 | 53.72251 | 25876 ft | 400 kts | 281° |
| 2026-04-23 16:19 | 25.42575 | 53.69230 | 25874 ft | 400 kts | 281° |
| 2026-04-23 16:19 | 25.43120 | 53.66214 | 25872 ft | 400 kts | 281° |
| 2026-04-23 16:19 | 25.43664 | 53.63200 | 25873 ft | 400 kts | 281° |
| 2026-04-23 16:20 | 25.44207 | 53.60184 | 25879 ft | 400 kts | 281° |
| 2026-04-23 16:20 | 25.44750 | 53.57167 | 25877 ft | 399 kts | 281° |
| 2026-04-23 16:20 | 25.45292 | 53.54154 | 25880 ft | 399 kts | 281° |
| 2026-04-23 16:20 | 25.45833 | 53.51140 | 25880 ft | 400 kts | 281° |
| 2026-04-23 16:21 | 25.46373 | 53.48127 | 25881 ft | 400 kts | 281° |
| 2026-04-23 16:21 | 25.46913 | 53.45111 | 25881 ft | 400 kts | 281° |
| 2026-04-23 16:21 | 25.47453 | 53.42094 | 25878 ft | 400 kts | 281° |
| 2026-04-23 16:21 | 25.47993 | 53.39073 | 25878 ft | 400 kts | 281° |
| 2026-04-23 16:22 | 25.48531 | 53.36056 | 25881 ft | 400 kts | 281° |
| 2026-04-23 16:22 | 25.49070 | 53.33030 | 25883 ft | 400 kts | 281° |
| 2026-04-23 16:22 | 25.49608 | 53.30008 | 25882 ft | 401 kts | 281° |
| 2026-04-23 16:22 | 25.50145 | 53.26983 | 25882 ft | 401 kts | 280° |
| 2026-04-23 16:23 | 25.50676 | 53.23994 | 25886 ft | 401 kts | 280° |
| 2026-04-23 16:23 | 25.51213 | 53.20965 | 25882 ft | 401 kts | 280° |
| 2026-04-23 16:23 | 25.51750 | 53.17932 | 25881 ft | 401 kts | 280° |
| 2026-04-23 16:23 | 25.52286 | 53.14902 | 25883 ft | 401 kts | 280° |
| 2026-04-23 16:24 | 25.52821 | 53.11870 | 25881 ft | 402 kts | 280° |
| 2026-04-23 16:24 | 25.53356 | 53.08836 | 25883 ft | 402 kts | 280° |
| 2026-04-23 16:24 | 25.53890 | 53.05798 | 25886 ft | 402 kts | 280° |
| 2026-04-23 16:24 | 25.54250 | 53.03751 | 25888 ft | 402 kts | 280° |
| 2026-04-23 16:25 | 25.54784 | 53.00713 | 25887 ft | 402 kts | 280° |
| 2026-04-23 16:25 | 25.55316 | 52.97677 | 25889 ft | 402 kts | 280° |
| 2026-04-23 16:25 | 25.56033 | 52.93657 | 25883 ft | 402 kts | 282° |
| 2026-04-23 16:25 | 25.56548 | 52.91687 | 25883 ft | 403 kts | 287° |
| 2026-04-23 16:26 | 25.57642 | 52.88783 | 25883 ft | 404 kts | 295° |
| 2026-04-23 16:26 | 25.59073 | 52.86096 | 25890 ft | 405 kts | 299° |
| 2026-04-23 16:26 | 25.60563 | 52.83441 | 25884 ft | 406 kts | 299° |
| 2026-04-23 16:26 | 25.62060 | 52.80789 | 25883 ft | 406 kts | 299° |
| 2026-04-23 16:27 | 25.63533 | 52.78173 | 25886 ft | 406 kts | 299° |
| 2026-04-23 16:27 | 25.65021 | 52.75517 | 25886 ft | 406 kts | 299° |
| 2026-04-23 16:27 | 25.66503 | 52.72859 | 25887 ft | 405 kts | 299° |
| 2026-04-23 16:27 | 25.67982 | 52.70198 | 25882 ft | 405 kts | 299° |
| 2026-04-23 16:28 | 25.69455 | 52.67540 | 25887 ft | 405 kts | 298° |
| 2026-04-23 16:28 | 25.70927 | 52.64879 | 25884 ft | 405 kts | 298° |
| 2026-04-23 16:28 | 25.72397 | 52.62218 | 25887 ft | 405 kts | 298° |
| 2026-04-23 16:28 | 25.73868 | 52.59555 | 25891 ft | 404 kts | 298° |
| 2026-04-23 16:29 | 25.75334 | 52.56898 | 25890 ft | 404 kts | 298° |
| 2026-04-23 16:29 | 25.76802 | 52.54236 | 25887 ft | 404 kts | 298° |
| 2026-04-23 16:29 | 25.78269 | 52.51574 | 25890 ft | 404 kts | 298° |
| 2026-04-23 16:29 | 25.79735 | 52.48915 | 25875 ft | 404 kts | 298° |
| 2026-04-23 16:30 | 25.81185 | 52.46283 | 25617 ft | 394 kts | 298° |
| 2026-04-23 16:30 | 25.82596 | 52.43724 | 25376 ft | 384 kts | 298° |
| 2026-04-23 16:30 | 25.83972 | 52.41225 | 25135 ft | 375 kts | 298° |
| 2026-04-23 16:30 | 25.85327 | 52.38761 | 24910 ft | 373 kts | 298° |
| 2026-04-23 16:31 | 25.86680 | 52.36295 | 24686 ft | 375 kts | 298° |
| 2026-04-23 16:31 | 25.88038 | 52.33820 | 24458 ft | 376 kts | 298° |
| 2026-04-23 16:31 | 25.89397 | 52.31341 | 24243 ft | 376 kts | 298° |
| 2026-04-23 16:31 | 25.90757 | 52.28860 | 24017 ft | 376 kts | 298° |
| 2026-04-23 16:32 | 25.92115 | 52.26383 | 23797 ft | 375 kts | 298° |
| 2026-04-23 16:32 | 25.93471 | 52.23907 | 23579 ft | 375 kts | 298° |
| 2026-04-23 16:32 | 25.94823 | 52.21440 | 23338 ft | 373 kts | 298° |
| 2026-04-23 16:32 | 25.96171 | 52.18978 | 23072 ft | 372 kts | 298° |
| 2026-04-23 16:33 | 25.97512 | 52.16526 | 22814 ft | 370 kts | 298° |
| 2026-04-23 16:33 | 25.98845 | 52.14090 | 22551 ft | 368 kts | 298° |
| 2026-04-23 16:33 | 26.00169 | 52.11668 | 22295 ft | 366 kts | 298° |
| 2026-04-23 16:33 | 26.01487 | 52.09255 | 22043 ft | 363 kts | 298° |
| 2026-04-23 16:34 | 26.02793 | 52.06862 | 21791 ft | 361 kts | 297° |
| 2026-04-23 16:34 | 26.04093 | 52.04480 | 21541 ft | 359 kts | 297° |
| 2026-04-23 16:34 | 26.05385 | 52.02112 | 21289 ft | 357 kts | 297° |
| 2026-04-23 16:34 | 26.06671 | 51.99752 | 21047 ft | 356 kts | 297° |
| 2026-04-23 16:35 | 26.07951 | 51.97402 | 20802 ft | 354 kts | 297° |
| 2026-04-23 16:35 | 26.09224 | 51.95063 | 20564 ft | 353 kts | 297° |
| 2026-04-23 16:35 | 26.10492 | 51.92733 | 20326 ft | 352 kts | 297° |
| 2026-04-23 16:35 | 26.11755 | 51.90411 | 20088 ft | 350 kts | 297° |
| 2026-04-23 16:36 | 26.13014 | 51.88095 | 19854 ft | 349 kts | 297° |
| 2026-04-23 16:36 | 26.14267 | 51.85789 | 19617 ft | 348 kts | 297° |
| 2026-04-23 16:36 | 26.15516 | 51.83490 | 19380 ft | 347 kts | 297° |
| 2026-04-23 16:36 | 26.16763 | 51.81193 | 19156 ft | 346 kts | 297° |
| 2026-04-23 16:37 | 26.17986 | 51.78939 | 18928 ft | 345 kts | 297° |
| 2026-04-23 16:37 | 26.19222 | 51.76658 | 18704 ft | 344 kts | 297° |
| 2026-04-23 16:37 | 26.20454 | 51.74385 | 18481 ft | 343 kts | 297° |
| 2026-04-23 16:37 | 26.21683 | 51.72116 | 18251 ft | 341 kts | 297° |
| 2026-04-23 16:38 | 26.22908 | 51.69855 | 18007 ft | 340 kts | 297° |
| 2026-04-23 16:38 | 26.24129 | 51.67599 | 17747 ft | 339 kts | 297° |
| 2026-04-23 16:38 | 26.25344 | 51.65352 | 17492 ft | 338 kts | 297° |
| 2026-04-23 16:38 | 26.26556 | 51.63111 | 17237 ft | 336 kts | 297° |
| 2026-04-23 16:39 | 26.27743 | 51.60918 | 16964 ft | 324 kts | 297° |
| 2026-04-23 16:39 | 26.28880 | 51.58819 | 16700 ft | 310 kts | 297° |
| 2026-04-23 16:39 | 26.29971 | 51.56805 | 16438 ft | 297 kts | 296° |
| 2026-04-23 16:39 | 26.31016 | 51.54871 | 16179 ft | 285 kts | 296° |
| 2026-04-23 16:40 | 26.32019 | 51.53012 | 15922 ft | 275 kts | 296° |
| 2026-04-23 16:40 | 26.32990 | 51.51210 | 15674 ft | 268 kts | 296° |
| 2026-04-23 16:40 | 26.33938 | 51.49447 | 15431 ft | 263 kts | 296° |
| 2026-04-23 16:40 | 26.34876 | 51.47703 | 15067 ft | 263 kts | 296° |
| 2026-04-23 16:41 | 26.35814 | 51.45955 | 14582 ft | 263 kts | 296° |
| 2026-04-23 16:41 | 26.36756 | 51.44202 | 14117 ft | 264 kts | 296° |
| 2026-04-23 16:41 | 26.37696 | 51.42454 | 13714 ft | 262 kts | 296° |
| 2026-04-23 16:41 | 26.38631 | 51.40716 | 13270 ft | 260 kts | 296° |
| 2026-04-23 16:42 | 26.39558 | 51.38991 | 12808 ft | 259 kts | 296° |
| 2026-04-23 16:42 | 26.40472 | 51.37292 | 12607 ft | 248 kts | 296° |
| 2026-04-23 16:42 | 26.41336 | 51.35688 | 12468 ft | 236 kts | 296° |
| 2026-04-23 16:42 | 26.42170 | 51.34135 | 12126 ft | 232 kts | 295° |
| 2026-04-23 16:43 | 26.42999 | 51.32589 | 11732 ft | 232 kts | 296° |
| 2026-04-23 16:43 | 26.43829 | 51.31041 | 11322 ft | 232 kts | 296° |
| 2026-04-23 16:43 | 26.44658 | 51.29494 | 10936 ft | 232 kts | 296° |
| 2026-04-23 16:43 | 26.45447 | 51.27936 | 10555 ft | 228 kts | 286° |
| 2026-04-23 16:44 | 26.45671 | 51.26244 | 10167 ft | 223 kts | 264° |
| 2026-04-23 16:44 | 26.45331 | 51.24566 | 9784 ft | 222 kts | 250° |
| 2026-04-23 16:44 | 26.44652 | 51.23022 | 9341 ft | 224 kts | 236° |
| 2026-04-23 16:44 | 26.43708 | 51.21635 | 8936 ft | 225 kts | 233° |
| 2026-04-23 16:45 | 26.42732 | 51.20260 | 8619 ft | 226 kts | 233° |
| 2026-04-23 16:45 | 26.41757 | 51.18892 | 8386 ft | 225 kts | 233° |
| 2026-04-23 16:45 | 26.40788 | 51.17525 | 8135 ft | 225 kts | 233° |
| 2026-04-23 16:45 | 26.39817 | 51.16151 | 8055 ft | 225 kts | 233° |
| 2026-04-23 16:46 | 26.38848 | 51.14772 | 8019 ft | 227 kts | 233° |
| 2026-04-23 16:46 | 26.37861 | 51.13367 | 7729 ft | 241 kts | 232° |
| 2026-04-23 16:46 | 26.36802 | 51.11847 | 7420 ft | 252 kts | 233° |
| 2026-04-23 16:46 | 26.35734 | 51.10306 | 7151 ft | 247 kts | 232° |
| 2026-04-23 16:47 | 26.34711 | 51.08819 | 7092 ft | 237 kts | 233° |
| 2026-04-23 16:47 | 26.33726 | 51.07383 | 6975 ft | 229 kts | 233° |
| 2026-04-23 16:47 | 26.32767 | 51.05983 | 6806 ft | 225 kts | 232° |
| 2026-04-23 16:47 | 26.31826 | 51.04601 | 6544 ft | 225 kts | 232° |
| 2026-04-23 16:48 | 26.30878 | 51.03198 | 6269 ft | 227 kts | 232° |
| 2026-04-23 16:48 | 26.29936 | 51.01791 | 6039 ft | 225 kts | 232° |
| 2026-04-23 16:48 | 26.29024 | 51.00428 | 5887 ft | 217 kts | 233° |
| 2026-04-23 16:48 | 26.28130 | 50.99093 | 5622 ft | 214 kts | 233° |
| 2026-04-23 16:49 | 26.27534 | 50.98206 | 5378 ft | 218 kts | 233° |
| 2026-04-23 16:49 | 26.26314 | 50.96403 | 5044 ft | 217 kts | 233° |
| 2026-04-23 16:49 | 26.25397 | 50.95060 | 4776 ft | 218 kts | 233° |
| 2026-04-23 16:49 | 26.24325 | 50.93919 | 4663 ft | 211 kts | 213° |
| 2026-04-23 16:50 | 26.23094 | 50.93048 | 4431 ft | 210 kts | 213° |
| 2026-04-23 16:50 | 26.21859 | 50.92179 | 4171 ft | 210 kts | 213° |
| 2026-04-23 16:50 | 26.20611 | 50.91311 | 3897 ft | 212 kts | 213° |
| 2026-04-23 16:50 | 26.19356 | 50.90449 | 3666 ft | 212 kts | 213° |
| 2026-04-23 16:51 | 26.18100 | 50.89599 | 3456 ft | 212 kts | 213° |
| 2026-04-23 16:51 | 26.16832 | 50.88745 | 3222 ft | 212 kts | 217° |
| 2026-04-23 16:51 | 26.15904 | 50.87555 | 2912 ft | 207 kts | 253° |
| 2026-04-23 16:51 | 26.15680 | 50.86008 | 2695 ft | 200 kts | 271° |
| 2026-04-23 16:52 | 26.15645 | 50.84474 | 2403 ft | 201 kts | 274° |
| 2026-04-23 16:52 | 26.15957 | 50.83021 | 2155 ft | 190 kts | 302° |
| 2026-04-23 16:52 | 26.16609 | 50.81731 | 1801 ft | 193 kts | 305° |
| 2026-04-23 16:52 | 26.17301 | 50.80447 | 1560 ft | 192 kts | 306° |
| 2026-04-23 16:53 | 26.18021 | 50.79171 | 1554 ft | 195 kts | 307° |
| 2026-04-23 16:53 | 26.18744 | 50.77903 | 1520 ft | 194 kts | 307° |
| 2026-04-23 16:53 | 26.19445 | 50.76677 | 1497 ft | 180 kts | 308° |
| 2026-04-23 16:53 | 26.20089 | 50.75550 | 1483 ft | 165 kts | 308° |
| 2026-04-23 16:54 | 26.20695 | 50.74495 | 1523 ft | 163 kts | 308° |
| 2026-04-23 16:54 | 26.21306 | 50.73431 | 1516 ft | 160 kts | 308° |
| 2026-04-23 16:54 | 26.21876 | 50.72434 | 1515 ft | 149 kts | 309° |
| 2026-04-23 16:54 | 26.22429 | 50.71471 | 1421 ft | 149 kts | 309° |
| 2026-04-23 16:55 | 26.22984 | 50.70505 | 1235 ft | 147 kts | 307° |
| 2026-04-23 16:55 | 26.23533 | 50.69546 | 1050 ft | 148 kts | 307° |
| 2026-04-23 16:55 | 26.24091 | 50.68573 | 861 ft | 148 kts | 307° |
| 2026-04-23 16:55 | 26.24632 | 50.67615 | 682 ft | 145 kts | 306° |
| 2026-04-23 16:56 | 26.25164 | 50.66691 | 491 ft | 141 kts | 306° |
| 2026-04-23 16:56 | 26.25678 | 50.65792 | 281 ft | 135 kts | 307° |
| 2026-04-23 16:56 | 26.26188 | 50.64911 | 99 ft | 137 kts | 306° |
| 2026-04-23 16:56 | 26.26703 | 50.64023 | 17 ft | 129 kts | 304° |
| 2026-04-23 16:57 | 26.27110 | 50.63319 | 14 ft | 87 kts | 303° |
| 2026-04-23 16:57 | 26.27250 | 50.63016 | 15 ft | 32 kts | 276° |
| 2026-04-23 16:57 | 26.27240 | 50.62845 | 18 ft | 14 kts | 219° |
| 2026-04-23 16:57 | 26.27176 | 50.62866 | 19 ft | 7 kts | 124° |
| 2026-04-23 16:58 | 26.27166 | 50.62882 | 21 ft | 0 kts | 124° |
| 2026-04-23 16:58 | 26.27157 | 50.62896 | 20 ft | 5 kts | 132° |
| 2026-04-23 16:58 | 26.27117 | 50.62910 | 21 ft | 7 kts | 191° |
| 2026-04-23 16:58 | 26.27059 | 50.62880 | 21 ft | 12 kts | 187° |
| 2026-04-23 16:59 | 26.27009 | 50.62928 | 22 ft | 9 kts | 120° |
| 2026-04-23 16:59 | 26.26972 | 50.62994 | 21 ft | 2 kts | 123° |
| 2026-04-23 16:59 | 26.26966 | 50.63004 | 22 ft | 1 kts | 123° |
| 2026-04-23 16:59 | 26.26956 | 50.63021 | 20 ft | 3 kts | 122° |
| 2026-04-23 17:00 | 26.26940 | 50.63046 | 20 ft | 5 kts | 135° |
| 2026-04-23 17:00 | 26.26919 | 50.63042 | 20 ft | 2 kts | 221° |
| 2026-04-23 17:00 | 26.26894 | 50.63020 | 20 ft | 7 kts | 213° |
| 2026-04-23 17:00 | 26.26856 | 50.62993 | 22 ft | 3 kts | 212° |
| 2026-04-23 17:01 | 26.26850 | 50.62989 | 20 ft | 0 kts | 212° |